sensor_id;sensor_type;location;lat;lon;timestamp;temperature;humidity
18974;DHT22;9621;48.690;9.466;2023-02-28T00:00:09;-3.40;99.90
18974;DHT22;9621;48.690;9.466;2023-02-28T00:02:43;-3.40;99.90
18974;DHT22;9621;48.690;9.466;2023-02-28T00:05:13;-3.40;99.90
18974;DHT22;9621;48.690;9.466;2023-02-28T00:07:48;-3.30;99.90
18974;DHT22;9621;48.690;9.466;2023-02-28T00:10:21;-3.40;99.80
18974;DHT22;9621;48.690;9.466;2023-02-28T00:12:49;-3.40;99.90
18974;DHT22;9621;48.690;9.466;2023-02-28T00:15:18;-3.40;99.90
18974;DHT22;9621;48.690;9.466;2023-02-28T00:17:54;-3.40;99.90
18974;DHT22;9621;48.690;9.466;2023-02-28T00:20:24;-3.40;99.90
18974;DHT22;9621;48.690;9.466;2023-02-28T00:22:53;-3.50;99.90
18974;DHT22;9621;48.690;9.466;2023-02-28T00:25:31;-3.40;99.90
18974;DHT22;9621;48.690;9.466;2023-02-28T00:28:05;-3.40;99.90
18974;DHT22;9621;48.690;9.466;2023-02-28T00:30:38;-3.40;99.90
18974;DHT22;9621;48.690;9.466;2023-02-28T00:33:06;-3.40;99.90
18974;DHT22;9621;48.690;9.466;2023-02-28T00:35:36;-3.30;99.90
18974;DHT22;9621;48.690;9.466;2023-02-28T00:38:05;-3.30;99.90
18974;DHT22;9621;48.690;9.466;2023-02-28T00:40:32;-3.30;99.90
18974;DHT22;9621;48.690;9.466;2023-02-28T00:43:00;-3.30;99.90
18974;DHT22;9621;48.690;9.466;2023-02-28T00:45:32;-0.50;99.90
18974;DHT22;9621;48.690;9.466;2023-02-28T00:48:03;-3.20;99.90
18974;DHT22;9621;48.690;9.466;2023-02-28T00:50:31;-3.20;99.90
18974;DHT22;9621;48.690;9.466;2023-02-28T00:53:01;-1.30;99.90
18974;DHT22;9621;48.690;9.466;2023-02-28T00:55:31;-2.60;99.90
18974;DHT22;9621;48.690;9.466;2023-02-28T00:58:04;-3.20;99.90
18974;DHT22;9621;48.690;9.466;2023-02-28T01:00:31;-3.10;99.90
18974;DHT22;9621;48.690;9.466;2023-02-28T01:02:58;-3.10;99.90
18974;DHT22;9621;48.690;9.466;2023-02-28T01:05:32;-2.50;99.90
18974;DHT22;9621;48.690;9.466;2023-02-28T01:07:58;-3.10;99.90
18974;DHT22;9621;48.690;9.466;2023-02-28T01:10:30;-3.00;99.90
18974;DHT22;9621;48.690;9.466;2023-02-28T01:12:58;-3.00;99.90
18974;DHT22;9621;48.690;9.466;2023-02-28T01:15:25;-3.00;99.90
18974;DHT22;9621;48.690;9.466;2023-02-28T01:17:52;-3.00;99.90
18974;DHT22;9621;48.690;9.466;2023-02-28T01:20:20;-2.00;99.90
18974;DHT22;9621;48.690;9.466;2023-02-28T01:22:48;-3.00;99.90
18974;DHT22;9621;48.690;9.466;2023-02-28T01:25:15;-2.90;99.90
18974;DHT22;9621;48.690;9.466;2023-02-28T01:27:46;-4.20;99.90
18974;DHT22;9621;48.690;9.466;2023-02-28T01:30:22;-2.90;99.90
18974;DHT22;9621;48.690;9.466;2023-02-28T01:33:00;-2.90;99.90
18974;DHT22;9621;48.690;9.466;2023-02-28T01:35:37;-3.00;99.90
18974;DHT22;9621;48.690;9.466;2023-02-28T01:38:04;-3.00;99.90
18974;DHT22;9621;48.690;9.466;2023-02-28T01:40:34;-3.00;99.90
18974;DHT22;9621;48.690;9.466;2023-02-28T01:43:28;-3.00;99.90
18974;DHT22;9621;48.690;9.466;2023-02-28T01:45:58;-3.00;99.90
18974;DHT22;9621;48.690;9.466;2023-02-28T01:48:40;-3.00;99.90
18974;DHT22;9621;48.690;9.466;2023-02-28T01:51:30;-3.00;99.90
18974;DHT22;9621;48.690;9.466;2023-02-28T01:54:05;-3.00;99.90
18974;DHT22;9621;48.690;9.466;2023-02-28T01:56:45;-3.00;99.90
18974;DHT22;9621;48.690;9.466;2023-02-28T01:59:29;-3.00;99.90
18974;DHT22;9621;48.690;9.466;2023-02-28T02:02:00;-3.00;99.90
18974;DHT22;9621;48.690;9.466;2023-02-28T02:04:37;-3.00;99.90
18974;DHT22;9621;48.690;9.466;2023-02-28T02:07:09;-3.10;99.90
18974;DHT22;9621;48.690;9.466;2023-02-28T02:09:36;-3.00;99.90
18974;DHT22;9621;48.690;9.466;2023-02-28T02:12:09;-3.00;99.90
18974;DHT22;9621;48.690;9.466;2023-02-28T02:14:53;-2.60;99.90
18974;DHT22;9621;48.690;9.466;2023-02-28T02:17:28;-3.00;99.90
18974;DHT22;9621;48.690;9.466;2023-02-28T02:20:37;-3.10;99.90
18974;DHT22;9621;48.690;9.466;2023-02-28T02:23:26;-3.00;99.90
18974;DHT22;9621;48.690;9.466;2023-02-28T02:25:59;-3.00;99.90
18974;DHT22;9621;48.690;9.466;2023-02-28T02:29:03;-2.90;99.90
18974;DHT22;9621;48.690;9.466;2023-02-28T02:32:14;-2.90;99.90
18974;DHT22;9621;48.690;9.466;2023-02-28T02:35:11;-2.90;99.90
18974;DHT22;9621;48.690;9.466;2023-02-28T02:37:44;-3.00;99.90
18974;DHT22;9621;48.690;9.466;2023-02-28T02:40:20;-2.90;99.90
18974;DHT22;9621;48.690;9.466;2023-02-28T02:42:52;-2.90;99.90
18974;DHT22;9621;48.690;9.466;2023-02-28T02:45:34;-2.90;99.90
18974;DHT22;9621;48.690;9.466;2023-02-28T02:48:08;-1.60;99.90
18974;DHT22;9621;48.690;9.466;2023-02-28T02:50:48;-2.90;99.90
18974;DHT22;9621;48.690;9.466;2023-02-28T02:53:19;-2.80;99.90
18974;DHT22;9621;48.690;9.466;2023-02-28T02:56:02;-2.90;99.90
18974;DHT22;9621;48.690;9.466;2023-02-28T02:58:33;-3.00;99.90
18974;DHT22;9621;48.690;9.466;2023-02-28T03:01:04;-3.00;99.90
18974;DHT22;9621;48.690;9.466;2023-02-28T03:03:33;-2.90;99.90
18974;DHT22;9621;48.690;9.466;2023-02-28T03:06:06;-1.80;99.90
18974;DHT22;9621;48.690;9.466;2023-02-28T03:08:40;-3.00;99.90
18974;DHT22;9621;48.690;9.466;2023-02-28T03:11:12;-3.00;99.90
18974;DHT22;9621;48.690;9.466;2023-02-28T03:13:59;-3.00;99.90
18974;DHT22;9621;48.690;9.466;2023-02-28T03:16:52;-3.00;99.90
18974;DHT22;9621;48.690;9.466;2023-02-28T03:19:33;-2.90;99.90
18974;DHT22;9621;48.690;9.466;2023-02-28T03:22:14;-2.90;99.90
18974;DHT22;9621;48.690;9.466;2023-02-28T03:24:50;-2.90;99.90
18974;DHT22;9621;48.690;9.466;2023-02-28T03:27:42;-2.90;99.90
18974;DHT22;9621;48.690;9.466;2023-02-28T03:33:16;-2.80;99.90
18974;DHT22;9621;48.690;9.466;2023-02-28T03:35:48;-2.80;99.90
18974;DHT22;9621;48.690;9.466;2023-02-28T03:38:27;-2.80;99.90
18974;DHT22;9621;48.690;9.466;2023-02-28T03:41:00;-2.70;99.90
18974;DHT22;9621;48.690;9.466;2023-02-28T03:43:37;-2.70;99.90
18974;DHT22;9621;48.690;9.466;2023-02-28T03:46:16;-2.70;99.90
18974;DHT22;9621;48.690;9.466;2023-02-28T03:48:50;-2.70;99.90
18974;DHT22;9621;48.690;9.466;2023-02-28T03:51:20;-2.60;99.90
18974;DHT22;9621;48.690;9.466;2023-02-28T03:53:56;-2.00;99.90
18974;DHT22;9621;48.690;9.466;2023-02-28T03:56:48;-2.70;99.90
18974;DHT22;9621;48.690;9.466;2023-02-28T03:59:32;-2.50;99.90
18974;DHT22;9621;48.690;9.466;2023-02-28T04:02:02;-2.50;99.90
18974;DHT22;9621;48.690;9.466;2023-02-28T04:04:34;-2.50;99.90
18974;DHT22;9621;48.690;9.466;2023-02-28T04:07:20;-2.50;99.90
18974;DHT22;9621;48.690;9.466;2023-02-28T04:09:49;-2.50;99.90
18974;DHT22;9621;48.690;9.466;2023-02-28T04:12:21;-2.20;99.90
18974;DHT22;9621;48.690;9.466;2023-02-28T04:15:02;-2.50;99.90
18974;DHT22;9621;48.690;9.466;2023-02-28T04:17:32;-2.40;99.90
18974;DHT22;9621;48.690;9.466;2023-02-28T04:20:03;-2.40;99.90
18974;DHT22;9621;48.690;9.466;2023-02-28T04:22:37;-2.30;99.90
18974;DHT22;9621;48.690;9.466;2023-02-28T04:25:08;-2.40;99.90
18974;DHT22;9621;48.690;9.466;2023-02-28T04:27:47;-1.10;99.90
18974;DHT22;9621;48.690;9.466;2023-02-28T04:30:14;-2.40;99.90
18974;DHT22;9621;48.690;9.466;2023-02-28T04:32:41;-2.20;99.90
18974;DHT22;9621;48.690;9.466;2023-02-28T04:35:09;-2.30;99.90
18974;DHT22;9621;48.690;9.466;2023-02-28T04:37:38;-2.40;99.90
18974;DHT22;9621;48.690;9.466;2023-02-28T04:40:10;-2.80;99.90
18974;DHT22;9621;48.690;9.466;2023-02-28T04:42:37;-2.30;99.90
18974;DHT22;9621;48.690;9.466;2023-02-28T04:45:06;-3.30;99.90
18974;DHT22;9621;48.690;9.466;2023-02-28T04:47:35;-2.40;99.90
18974;DHT22;9621;48.690;9.466;2023-02-28T04:50:03;-2.50;99.90
18974;DHT22;9621;48.690;9.466;2023-02-28T04:52:33;-2.40;99.90
18974;DHT22;9621;48.690;9.466;2023-02-28T04:55:01;-2.20;99.90
18974;DHT22;9621;48.690;9.466;2023-02-28T04:57:29;-2.40;99.90
18974;DHT22;9621;48.690;9.466;2023-02-28T04:59:57;-2.30;99.90
18974;DHT22;9621;48.690;9.466;2023-02-28T05:02:27;-2.30;99.90
18974;DHT22;9621;48.690;9.466;2023-02-28T05:04:59;-2.30;99.90
18974;DHT22;9621;48.690;9.466;2023-02-28T05:07:26;-1.00;99.90
18974;DHT22;9621;48.690;9.466;2023-02-28T05:09:56;-2.30;99.90
18974;DHT22;9621;48.690;9.466;2023-02-28T05:12:24;-1.10;99.90
18974;DHT22;9621;48.690;9.466;2023-02-28T05:14:55;-2.30;99.90
18974;DHT22;9621;48.690;9.466;2023-02-28T05:17:22;-2.20;99.90
18974;DHT22;9621;48.690;9.466;2023-02-28T05:19:50;-2.00;99.90
18974;DHT22;9621;48.690;9.466;2023-02-28T05:22:17;-2.20;99.90
18974;DHT22;9621;48.690;9.466;2023-02-28T05:24:44;-1.60;99.90
18974;DHT22;9621;48.690;9.466;2023-02-28T05:27:11;-1.60;99.90
18974;DHT22;9621;48.690;9.466;2023-02-28T05:29:38;-1.80;99.90
18974;DHT22;9621;48.690;9.466;2023-02-28T05:32:11;-2.20;99.90
18974;DHT22;9621;48.690;9.466;2023-02-28T05:34:41;-2.20;99.90
18974;DHT22;9621;48.690;9.466;2023-02-28T05:37:13;-0.90;99.90
18974;DHT22;9621;48.690;9.466;2023-02-28T05:39:41;-2.20;99.90
18974;DHT22;9621;48.690;9.466;2023-02-28T05:42:09;-2.10;99.90
18974;DHT22;9621;48.690;9.466;2023-02-28T05:44:42;-1.20;99.90
18974;DHT22;9621;48.690;9.466;2023-02-28T05:47:11;-2.10;99.90
18974;DHT22;9621;48.690;9.466;2023-02-28T05:49:41;-1.80;99.90
18974;DHT22;9621;48.690;9.466;2023-02-28T05:52:27;-2.10;99.90
18974;DHT22;9621;48.690;9.466;2023-02-28T05:54:58;-3.20;99.90
18974;DHT22;9621;48.690;9.466;2023-02-28T05:57:28;-2.10;99.90
18974;DHT22;9621;48.690;9.466;2023-02-28T05:59:55;-2.10;99.90
18974;DHT22;9621;48.690;9.466;2023-02-28T06:02:27;-2.10;99.90
18974;DHT22;9621;48.690;9.466;2023-02-28T06:04:57;-2.10;99.90
18974;DHT22;9621;48.690;9.466;2023-02-28T06:07:24;-2.10;99.90
18974;DHT22;9621;48.690;9.466;2023-02-28T06:09:51;-1.80;99.90
18974;DHT22;9621;48.690;9.466;2023-02-28T06:12:18;-1.10;99.90
18974;DHT22;9621;48.690;9.466;2023-02-28T06:14:45;-1.70;99.90
18974;DHT22;9621;48.690;9.466;2023-02-28T06:17:16;-0.50;99.90
18974;DHT22;9621;48.690;9.466;2023-02-28T06:19:52;-2.10;99.90
18974;DHT22;9621;48.690;9.466;2023-02-28T06:22:19;-1.70;99.90
18974;DHT22;9621;48.690;9.466;2023-02-28T06:24:47;-1.70;99.90
18974;DHT22;9621;48.690;9.466;2023-02-28T06:27:16;-2.00;99.90
18974;DHT22;9621;48.690;9.466;2023-02-28T06:29:43;-1.90;99.90
18974;DHT22;9621;48.690;9.466;2023-02-28T06:32:10;-1.10;99.90
18974;DHT22;9621;48.690;9.466;2023-02-28T06:34:37;-1.70;99.90
18974;DHT22;9621;48.690;9.466;2023-02-28T06:37:09;-0.40;99.90
18974;DHT22;9621;48.690;9.466;2023-02-28T06:39:36;-2.00;99.90
18974;DHT22;9621;48.690;9.466;2023-02-28T06:42:03;-2.00;99.90
18974;DHT22;9621;48.690;9.466;2023-02-28T06:44:33;-1.30;99.90
18974;DHT22;9621;48.690;9.466;2023-02-28T06:47:17;-1.80;99.90
18974;DHT22;9621;48.690;9.466;2023-02-28T06:49:44;-0.80;99.90
18974;DHT22;9621;48.690;9.466;2023-02-28T06:52:13;-1.90;99.90
18974;DHT22;9621;48.690;9.466;2023-02-28T06:54:40;-1.90;99.90
18974;DHT22;9621;48.690;9.466;2023-02-28T06:57:17;-1.80;99.90
18974;DHT22;9621;48.690;9.466;2023-02-28T06:59:44;-1.90;99.90
18974;DHT22;9621;48.690;9.466;2023-02-28T07:02:13;-1.80;99.90
18974;DHT22;9621;48.690;9.466;2023-02-28T07:04:40;-2.00;99.90
18974;DHT22;9621;48.690;9.466;2023-02-28T07:07:10;-1.20;99.90
18974;DHT22;9621;48.690;9.466;2023-02-28T07:09:39;-0.80;99.90
18974;DHT22;9621;48.690;9.466;2023-02-28T07:12:11;-1.90;99.90
18974;DHT22;9621;48.690;9.466;2023-02-28T07:14:46;-1.80;99.90
18974;DHT22;9621;48.690;9.466;2023-02-28T07:17:13;-1.50;99.90
18974;DHT22;9621;48.690;9.466;2023-02-28T07:19:43;0.50;99.90
18974;DHT22;9621;48.690;9.466;2023-02-28T07:22:13;0.20;99.90
18974;DHT22;9621;48.690;9.466;2023-02-28T07:24:42;-0.20;99.90
18974;DHT22;9621;48.690;9.466;2023-02-28T07:27:09;-1.70;99.90
18974;DHT22;9621;48.690;9.466;2023-02-28T07:29:36;-0.40;99.90
18974;DHT22;9621;48.690;9.466;2023-02-28T07:32:04;-1.60;99.90
18974;DHT22;9621;48.690;9.466;2023-02-28T07:34:34;-1.60;99.90
18974;DHT22;9621;48.690;9.466;2023-02-28T07:37:08;-1.60;99.90
18974;DHT22;9621;48.690;9.466;2023-02-28T07:39:38;-1.70;99.90
18974;DHT22;9621;48.690;9.466;2023-02-28T07:42:09;-1.60;99.90
18974;DHT22;9621;48.690;9.466;2023-02-28T07:44:40;-1.50;99.90
18974;DHT22;9621;48.690;9.466;2023-02-28T07:47:08;-0.10;99.90
18974;DHT22;9621;48.690;9.466;2023-02-28T07:49:36;-1.70;99.90
18974;DHT22;9621;48.690;9.466;2023-02-28T07:52:04;-1.00;99.90
18974;DHT22;9621;48.690;9.466;2023-02-28T07:54:32;-0.10;99.90
18974;DHT22;9621;48.690;9.466;2023-02-28T07:57:02;-1.10;99.90
18974;DHT22;9621;48.690;9.466;2023-02-28T07:59:40;-1.40;99.90
18974;DHT22;9621;48.690;9.466;2023-02-28T08:02:10;-1.40;99.90
18974;DHT22;9621;48.690;9.466;2023-02-28T08:04:49;-1.50;99.90
18974;DHT22;9621;48.690;9.466;2023-02-28T08:07:17;-1.20;99.90
18974;DHT22;9621;48.690;9.466;2023-02-28T08:09:45;-1.20;99.90
18974;DHT22;9621;48.690;9.466;2023-02-28T08:12:19;-1.20;99.90
18974;DHT22;9621;48.690;9.466;2023-02-28T08:14:48;-1.00;99.90
18974;DHT22;9621;48.690;9.466;2023-02-28T08:17:24;0.90;99.90
18974;DHT22;9621;48.690;9.466;2023-02-28T08:19:54;-1.10;99.90
18974;DHT22;9621;48.690;9.466;2023-02-28T08:22:24;-1.00;99.90
18974;DHT22;9621;48.690;9.466;2023-02-28T08:24:54;-1.00;99.90
18974;DHT22;9621;48.690;9.466;2023-02-28T08:27:21;-1.00;99.90
18974;DHT22;9621;48.690;9.466;2023-02-28T08:29:50;-0.90;99.90
18974;DHT22;9621;48.690;9.466;2023-02-28T08:32:17;-0.90;99.90
18974;DHT22;9621;48.690;9.466;2023-02-28T08:34:44;-0.90;99.90
18974;DHT22;9621;48.690;9.466;2023-02-28T08:37:11;-0.90;99.90
18974;DHT22;9621;48.690;9.466;2023-02-28T08:39:38;-0.90;99.90
18974;DHT22;9621;48.690;9.466;2023-02-28T08:42:05;-0.90;99.90
18974;DHT22;9621;48.690;9.466;2023-02-28T08:44:36;-0.80;99.80
18974;DHT22;9621;48.690;9.466;2023-02-28T08:47:05;-0.80;99.20
18974;DHT22;9621;48.690;9.466;2023-02-28T08:49:32;-0.10;99.80
18974;DHT22;9621;48.690;9.466;2023-02-28T08:51:59;-0.70;99.90
18974;DHT22;9621;48.690;9.466;2023-02-28T08:54:25;-0.60;99.90
18974;DHT22;9621;48.690;9.466;2023-02-28T08:56:56;-0.70;99.90
18974;DHT22;9621;48.690;9.466;2023-02-28T08:59:23;-0.70;99.90
18974;DHT22;9621;48.690;9.466;2023-02-28T09:01:50;-0.60;99.60
18974;DHT22;9621;48.690;9.466;2023-02-28T09:04:19;-0.60;99.90
18974;DHT22;9621;48.690;9.466;2023-02-28T09:06:49;-0.50;98.90
18974;DHT22;9621;48.690;9.466;2023-02-28T09:09:25;-0.40;99.60
18974;DHT22;9621;48.690;9.466;2023-02-28T09:12:09;-0.40;96.70
18974;DHT22;9621;48.690;9.466;2023-02-28T09:14:38;-0.30;97.70
18974;DHT22;9621;48.690;9.466;2023-02-28T09:17:05;-0.30;99.70
18974;DHT22;9621;48.690;9.466;2023-02-28T09:19:34;-0.30;98.60
18974;DHT22;9621;48.690;9.466;2023-02-28T09:22:01;-0.20;99.50
18974;DHT22;9621;48.690;9.466;2023-02-28T09:24:28;-0.20;99.40
18974;DHT22;9621;48.690;9.466;2023-02-28T09:27:00;1.00;97.60
18974;DHT22;9621;48.690;9.466;2023-02-28T09:29:30;0.00;97.70
18974;DHT22;9621;48.690;9.466;2023-02-28T09:31:57;0.60;97.90
18974;DHT22;9621;48.690;9.466;2023-02-28T09:34:24;1.50;99.20
18974;DHT22;9621;48.690;9.466;2023-02-28T09:36:53;0.10;99.20
18974;DHT22;9621;48.690;9.466;2023-02-28T09:39:21;0.60;96.80
18974;DHT22;9621;48.690;9.466;2023-02-28T09:41:53;0.20;97.10
18974;DHT22;9621;48.690;9.466;2023-02-28T09:44:26;0.20;98.90
18974;DHT22;9621;48.690;9.466;2023-02-28T09:46:59;0.30;97.60
18974;DHT22;9621;48.690;9.466;2023-02-28T09:49:34;2.10;96.90
18974;DHT22;9621;48.690;9.466;2023-02-28T09:52:13;0.40;95.40
18974;DHT22;9621;48.690;9.466;2023-02-28T09:54:41;0.60;96.40
18974;DHT22;9621;48.690;9.466;2023-02-28T09:57:16;0.60;98.10
18974;DHT22;9621;48.690;9.466;2023-02-28T09:59:59;0.60;96.60
18974;DHT22;9621;48.690;9.466;2023-02-28T10:03:04;0.60;95.60
18974;DHT22;9621;48.690;9.466;2023-02-28T10:05:37;0.80;93.00
18974;DHT22;9621;48.690;9.466;2023-02-28T10:08:14;0.90;96.40
18974;DHT22;9621;48.690;9.466;2023-02-28T10:10:43;0.90;96.10
18974;DHT22;9621;48.690;9.466;2023-02-28T10:13:20;1.00;97.90
18974;DHT22;9621;48.690;9.466;2023-02-28T10:15:52;1.10;97.00
18974;DHT22;9621;48.690;9.466;2023-02-28T10:18:25;1.20;98.40
18974;DHT22;9621;48.690;9.466;2023-02-28T10:20:56;1.30;98.00
18974;DHT22;9621;48.690;9.466;2023-02-28T10:23:27;1.50;98.00
18974;DHT22;9621;48.690;9.466;2023-02-28T10:25:58;1.50;97.60
18974;DHT22;9621;48.690;9.466;2023-02-28T10:28:26;1.60;97.30
18974;DHT22;9621;48.690;9.466;2023-02-28T10:30:57;1.60;96.20
18974;DHT22;9621;48.690;9.466;2023-02-28T10:33:28;1.70;96.80
18974;DHT22;9621;48.690;9.466;2023-02-28T10:35:55;1.70;96.70
18974;DHT22;9621;48.690;9.466;2023-02-28T10:38:25;1.70;98.40
18974;DHT22;9621;48.690;9.466;2023-02-28T10:41:04;1.80;96.50
18974;DHT22;9621;48.690;9.466;2023-02-28T10:43:31;1.80;94.40
18974;DHT22;9621;48.690;9.466;2023-02-28T10:46:02;2.10;97.10
18974;DHT22;9621;48.690;9.466;2023-02-28T10:48:32;2.10;96.70
18974;DHT22;9621;48.690;9.466;2023-02-28T10:51:01;2.20;95.40
18974;DHT22;9621;48.690;9.466;2023-02-28T10:53:34;2.30;98.60
18974;DHT22;9621;48.690;9.466;2023-02-28T10:56:04;3.40;96.90
18974;DHT22;9621;48.690;9.466;2023-02-28T10:58:45;2.90;99.60
18974;DHT22;9621;48.690;9.466;2023-02-28T11:01:14;3.40;95.50
18974;DHT22;9621;48.690;9.466;2023-02-28T11:06:15;4.20;99.90
18974;DHT22;9621;48.690;9.466;2023-02-28T11:08:47;5.00;98.80
18974;DHT22;9621;48.690;9.466;2023-02-28T11:13:47;5.60;98.80
18974;DHT22;9621;48.690;9.466;2023-02-28T11:16:16;5.60;98.40
18974;DHT22;9621;48.690;9.466;2023-02-28T11:18:47;5.80;99.10
18974;DHT22;9621;48.690;9.466;2023-02-28T11:21:21;7.10;98.60
18974;DHT22;9621;48.690;9.466;2023-02-28T11:23:52;6.20;96.10
18974;DHT22;9621;48.690;9.466;2023-02-28T11:26:38;6.50;97.80
18974;DHT22;9621;48.690;9.466;2023-02-28T11:29:17;6.60;90.00
18974;DHT22;9621;48.690;9.466;2023-02-28T11:32:12;6.60;90.40
18974;DHT22;9621;48.690;9.466;2023-02-28T11:34:40;6.60;90.80
18974;DHT22;9621;48.690;9.466;2023-02-28T11:37:11;6.50;95.00
18974;DHT22;9621;48.690;9.466;2023-02-28T11:39:41;6.40;94.20
18974;DHT22;9621;48.690;9.466;2023-02-28T11:42:21;6.40;95.50
18974;DHT22;9621;48.690;9.466;2023-02-28T11:45:03;6.30;92.40
18974;DHT22;9621;48.690;9.466;2023-02-28T11:47:41;6.10;90.50
18974;DHT22;9621;48.690;9.466;2023-02-28T11:50:19;6.00;95.20
18974;DHT22;9621;48.690;9.466;2023-02-28T11:52:53;6.00;95.30
18974;DHT22;9621;48.690;9.466;2023-02-28T11:55:25;5.90;95.10
18974;DHT22;9621;48.690;9.466;2023-02-28T11:58:05;6.00;94.50
18974;DHT22;9621;48.690;9.466;2023-02-28T12:00:43;6.10;92.60
18974;DHT22;9621;48.690;9.466;2023-02-28T12:03:21;6.20;92.80
18974;DHT22;9621;48.690;9.466;2023-02-28T12:05:58;7.70;95.50
18974;DHT22;9621;48.690;9.466;2023-02-28T12:08:41;7.40;96.60
18974;DHT22;9621;48.690;9.466;2023-02-28T12:11:15;7.00;94.70
18974;DHT22;9621;48.690;9.466;2023-02-28T12:13:50;7.30;96.90
18974;DHT22;9621;48.690;9.466;2023-02-28T12:16:38;7.70;97.80
18974;DHT22;9621;48.690;9.466;2023-02-28T12:19:19;7.90;92.50
18974;DHT22;9621;48.690;9.466;2023-02-28T12:25:00;8.40;94.50
18974;DHT22;9621;48.690;9.466;2023-02-28T12:27:34;8.60;97.10
18974;DHT22;9621;48.690;9.466;2023-02-28T12:30:12;8.90;96.80
18974;DHT22;9621;48.690;9.466;2023-02-28T12:32:42;9.00;98.40
18974;DHT22;9621;48.690;9.466;2023-02-28T12:35:13;9.20;98.00
18974;DHT22;9621;48.690;9.466;2023-02-28T12:37:44;9.30;97.10
18974;DHT22;9621;48.690;9.466;2023-02-28T12:40:17;9.40;97.80
18974;DHT22;9621;48.690;9.466;2023-02-28T12:42:50;9.50;98.10
18974;DHT22;9621;48.690;9.466;2023-02-28T12:45:20;9.60;94.50
18974;DHT22;9621;48.690;9.466;2023-02-28T12:47:52;9.70;95.00
18974;DHT22;9621;48.690;9.466;2023-02-28T12:50:23;9.70;92.70
18974;DHT22;9621;48.690;9.466;2023-02-28T12:52:56;9.80;96.60
18974;DHT22;9621;48.690;9.466;2023-02-28T12:55:31;9.80;94.10
18974;DHT22;9621;48.690;9.466;2023-02-28T12:58:12;10.00;92.40
18974;DHT22;9621;48.690;9.466;2023-02-28T13:00:55;10.10;80.60
18974;DHT22;9621;48.690;9.466;2023-02-28T13:03:51;10.10;92.10
18974;DHT22;9621;48.690;9.466;2023-02-28T13:06:53;10.10;84.30
18974;DHT22;9621;48.690;9.466;2023-02-28T13:09:24;10.10;88.20
18974;DHT22;9621;48.690;9.466;2023-02-28T13:11:52;10.20;96.40
18974;DHT22;9621;48.690;9.466;2023-02-28T13:14:24;10.20;93.70
18974;DHT22;9621;48.690;9.466;2023-02-28T13:17:02;10.20;92.20
18974;DHT22;9621;48.690;9.466;2023-02-28T13:19:39;10.20;92.50
18974;DHT22;9621;48.690;9.466;2023-02-28T13:22:18;10.20;95.40
18974;DHT22;9621;48.690;9.466;2023-02-28T13:24:48;10.50;92.60
18974;DHT22;9621;48.690;9.466;2023-02-28T13:27:23;10.60;95.40
18974;DHT22;9621;48.690;9.466;2023-02-28T13:29:53;10.50;92.30
18974;DHT22;9621;48.690;9.466;2023-02-28T13:32:40;10.50;87.20
18974;DHT22;9621;48.690;9.466;2023-02-28T13:35:36;10.30;76.70
18974;DHT22;9621;48.690;9.466;2023-02-28T13:38:36;10.20;72.20
18974;DHT22;9621;48.690;9.466;2023-02-28T13:44:09;10.00;82.20
18974;DHT22;9621;48.690;9.466;2023-02-28T13:49:44;10.00;82.40
18974;DHT22;9621;48.690;9.466;2023-02-28T13:52:16;10.00;93.10
18974;DHT22;9621;48.690;9.466;2023-02-28T13:54:57;9.90;90.90
18974;DHT22;9621;48.690;9.466;2023-02-28T13:57:34;9.70;88.00
18974;DHT22;9621;48.690;9.466;2023-02-28T14:00:19;9.50;86.30
18974;DHT22;9621;48.690;9.466;2023-02-28T14:03:05;9.20;79.80
18974;DHT22;9621;48.690;9.466;2023-02-28T14:05:37;8.70;77.00
18974;DHT22;9621;48.690;9.466;2023-02-28T14:08:07;8.20;87.50
18974;DHT22;9621;48.690;9.466;2023-02-28T14:10:48;7.80;85.40
18974;DHT22;9621;48.690;9.466;2023-02-28T14:13:41;7.30;85.90
18974;DHT22;9621;48.690;9.466;2023-02-28T14:16:14;6.90;77.20
18974;DHT22;9621;48.690;9.466;2023-02-28T14:18:47;6.50;89.70
18974;DHT22;9621;48.690;9.466;2023-02-28T14:21:31;6.20;86.30
18974;DHT22;9621;48.690;9.466;2023-02-28T14:24:13;6.50;88.60
18974;DHT22;9621;48.690;9.466;2023-02-28T14:27:07;5.80;87.90
18974;DHT22;9621;48.690;9.466;2023-02-28T14:29:59;5.70;86.20
18974;DHT22;9621;48.690;9.466;2023-02-28T14:32:35;5.40;83.80
18974;DHT22;9621;48.690;9.466;2023-02-28T14:35:16;5.20;89.00
18974;DHT22;9621;48.690;9.466;2023-02-28T14:37:49;5.10;82.60
18974;DHT22;9621;48.690;9.466;2023-02-28T14:40:25;5.70;90.30
18974;DHT22;9621;48.690;9.466;2023-02-28T14:42:56;4.90;91.10
18974;DHT22;9621;48.690;9.466;2023-02-28T14:45:27;4.70;89.10
18974;DHT22;9621;48.690;9.466;2023-02-28T14:47:57;4.80;89.20
18974;DHT22;9621;48.690;9.466;2023-02-28T14:50:27;4.50;91.20
18974;DHT22;9621;48.690;9.466;2023-02-28T14:52:57;4.60;91.00
18974;DHT22;9621;48.690;9.466;2023-02-28T14:55:28;4.40;91.80
18974;DHT22;9621;48.690;9.466;2023-02-28T14:57:57;4.70;91.50
18974;DHT22;9621;48.690;9.466;2023-02-28T15:00:26;4.70;91.70
18974;DHT22;9621;48.690;9.466;2023-02-28T15:02:54;4.30;91.90
18974;DHT22;9621;48.690;9.466;2023-02-28T15:05:27;6.50;93.50
18974;DHT22;9621;48.690;9.466;2023-02-28T15:08:10;4.20;90.90
18974;DHT22;9621;48.690;9.466;2023-02-28T15:10:41;4.10;88.50
18974;DHT22;9621;48.690;9.466;2023-02-28T15:13:13;4.10;91.00
18974;DHT22;9621;48.690;9.466;2023-02-28T15:15:44;4.10;91.30
18974;DHT22;9621;48.690;9.466;2023-02-28T15:18:20;4.30;92.60
18974;DHT22;9621;48.690;9.466;2023-02-28T15:20:50;4.10;91.90
18974;DHT22;9621;48.690;9.466;2023-02-28T15:23:22;4.10;92.50
18974;DHT22;9621;48.690;9.466;2023-02-28T15:25:50;4.00;91.40
18974;DHT22;9621;48.690;9.466;2023-02-28T15:28:19;5.60;92.50
18974;DHT22;9621;48.690;9.466;2023-02-28T15:30:52;4.00;91.00
18974;DHT22;9621;48.690;9.466;2023-02-28T15:33:22;3.90;90.00
18974;DHT22;9621;48.690;9.466;2023-02-28T15:35:49;3.90;90.30
18974;DHT22;9621;48.690;9.466;2023-02-28T15:38:22;4.60;92.00
18974;DHT22;9621;48.690;9.466;2023-02-28T15:40:51;3.80;90.50
18974;DHT22;9621;48.690;9.466;2023-02-28T15:43:27;3.80;92.10
18974;DHT22;9621;48.690;9.466;2023-02-28T15:45:58;3.70;91.20
18974;DHT22;9621;48.690;9.466;2023-02-28T15:48:27;3.70;91.40
18974;DHT22;9621;48.690;9.466;2023-02-28T15:50:58;3.60;92.10
18974;DHT22;9621;48.690;9.466;2023-02-28T15:53:32;3.80;92.70
18974;DHT22;9621;48.690;9.466;2023-02-28T15:56:01;3.60;91.30
18974;DHT22;9621;48.690;9.466;2023-02-28T15:58:29;3.50;92.40
18974;DHT22;9621;48.690;9.466;2023-02-28T16:01:18;3.50;92.50
18974;DHT22;9621;48.690;9.466;2023-02-28T16:03:48;3.40;89.30
18974;DHT22;9621;48.690;9.466;2023-02-28T16:06:38;3.40;92.70
18974;DHT22;9621;48.690;9.466;2023-02-28T16:09:10;3.30;90.40
18974;DHT22;9621;48.690;9.466;2023-02-28T16:11:43;3.30;91.80
18974;DHT22;9621;48.690;9.466;2023-02-28T16:14:16;3.20;91.90
18974;DHT22;9621;48.690;9.466;2023-02-28T16:16:52;3.20;92.10
18974;DHT22;9621;48.690;9.466;2023-02-28T16:19:19;3.20;92.00
18974;DHT22;9621;48.690;9.466;2023-02-28T16:21:46;4.30;92.90
18974;DHT22;9621;48.690;9.466;2023-02-28T16:24:15;4.80;93.10
18974;DHT22;9621;48.690;9.466;2023-02-28T16:26:46;2.90;92.10
18974;DHT22;9621;48.690;9.466;2023-02-28T16:29:16;3.00;92.70
18974;DHT22;9621;48.690;9.466;2023-02-28T16:31:50;2.80;92.90
18974;DHT22;9621;48.690;9.466;2023-02-28T16:34:20;4.60;94.50
18974;DHT22;9621;48.690;9.466;2023-02-28T16:36:49;2.70;93.80
18974;DHT22;9621;48.690;9.466;2023-02-28T16:39:17;2.60;93.90
18974;DHT22;9621;48.690;9.466;2023-02-28T16:41:48;2.60;94.00
18974;DHT22;9621;48.690;9.466;2023-02-28T16:44:32;2.60;93.20
18974;DHT22;9621;48.690;9.466;2023-02-28T16:47:03;2.40;91.40